sensor_id;sensor_type;location;lat;lon;timestamp;noise_LAeq;noise_LA_min;noise_LA_max;noise_LA01;noise_LA95
77134;Laerm;25175;50.140;18.990;2024-02-16T00:01:31;37.25;34.40;43.51;;
77134;Laerm;25175;50.140;18.990;2024-02-16T00:04:40;37.17;34.38;42.02;;
77134;Laerm;25175;50.140;18.990;2024-02-16T00:08:15;39.10;34.09;56.55;;
77134;Laerm;25175;50.140;18.990;2024-02-16T00:15:13;37.94;34.27;63.69;;
77134;Laerm;25175;50.140;18.990;2024-02-16T00:23:48;39.07;35.27;46.55;;
77134;Laerm;25175;50.140;18.990;2024-02-16T00:27:56;40.83;34.82;56.37;;
77134;Laerm;25175;50.140;18.990;2024-02-16T00:31:19;38.61;34.92;45.23;;
77134;Laerm;25175;50.140;18.990;2024-02-16T00:34:31;38.81;35.58;50.39;;
77134;Laerm;25175;50.140;18.990;2024-02-16T00:38:10;38.30;35.33;53.53;;
77134;Laerm;25175;50.140;18.990;2024-02-16T00:41:22;37.88;34.48;49.30;;
77134;Laerm;25175;50.140;18.990;2024-02-16T00:44:41;36.26;33.79;40.88;;
77134;Laerm;25175;50.140;18.990;2024-02-16T00:48:09;38.49;33.98;51.02;;
77134;Laerm;25175;50.140;18.990;2024-02-16T00:55:33;37.00;34.18;49.71;;
77134;Laerm;25175;50.140;18.990;2024-02-16T00:58:47;37.46;34.33;50.02;;
77134;Laerm;25175;50.140;18.990;2024-02-16T01:05:23;37.07;33.75;48.62;;
77134;Laerm;25175;50.140;18.990;2024-02-16T01:09:27;36.67;33.91;50.35;;
77134;Laerm;25175;50.140;18.990;2024-02-16T01:12:28;38.85;33.58;55.59;;
77134;Laerm;25175;50.140;18.990;2024-02-16T01:15:37;36.33;33.72;42.86;;
77134;Laerm;25175;50.140;18.990;2024-02-16T01:18:53;36.01;33.64;49.41;;
77134;Laerm;25175;50.140;18.990;2024-02-16T01:26:36;35.54;33.24;49.98;;
77134;Laerm;25175;50.140;18.990;2024-02-16T01:34:35;35.61;33.40;39.92;;
77134;Laerm;25175;50.140;18.990;2024-02-16T01:38:24;35.78;33.60;50.49;;
77134;Laerm;25175;50.140;18.990;2024-02-16T01:42:02;37.74;33.75;51.14;;
77134;Laerm;25175;50.140;18.990;2024-02-16T01:45:11;37.21;34.74;43.51;;
77134;Laerm;25175;50.140;18.990;2024-02-16T01:48:28;39.12;34.22;52.07;;
77134;Laerm;25175;50.140;18.990;2024-02-16T01:59:54;37.27;34.29;45.00;;
77134;Laerm;25175;50.140;18.990;2024-02-16T02:03:07;44.74;34.46;63.63;;
77134;Laerm;25175;50.140;18.990;2024-02-16T02:06:16;37.69;34.51;49.52;;
77134;Laerm;25175;50.140;18.990;2024-02-16T02:09:34;39.23;34.00;55.05;;
77134;Laerm;25175;50.140;18.990;2024-02-16T02:12:43;36.15;33.78;41.40;;
77134;Laerm;25175;50.140;18.990;2024-02-16T02:16:12;41.24;35.16;58.26;;
77134;Laerm;25175;50.140;18.990;2024-02-16T02:19:42;38.73;34.53;54.26;;
77134;Laerm;25175;50.140;18.990;2024-02-16T02:23:08;37.13;34.13;43.28;;
77134;Laerm;25175;50.140;18.990;2024-02-16T02:26:20;38.05;34.87;47.08;;
77134;Laerm;25175;50.140;18.990;2024-02-16T02:29:32;37.25;34.33;48.78;;
77134;Laerm;25175;50.140;18.990;2024-02-16T02:41:05;36.57;34.06;39.86;;
77134;Laerm;25175;50.140;18.990;2024-02-16T02:44:11;37.39;34.63;43.34;;
77134;Laerm;25175;50.140;18.990;2024-02-16T02:47:23;37.15;34.09;51.82;;
77134;Laerm;25175;50.140;18.990;2024-02-16T02:50:35;37.33;34.13;40.75;;
77134;Laerm;25175;50.140;18.990;2024-02-16T02:53:51;40.08;34.42;51.80;;
77134;Laerm;25175;50.140;18.990;2024-02-16T02:57:22;37.69;34.17;50.35;;
77134;Laerm;25175;50.140;18.990;2024-02-16T03:00:50;37.87;34.32;44.85;;
77134;Laerm;25175;50.140;18.990;2024-02-16T03:04:01;39.21;34.68;48.41;;
77134;Laerm;25175;50.140;18.990;2024-02-16T03:07:07;39.32;35.15;52.18;;
77134;Laerm;25175;50.140;18.990;2024-02-16T03:10:26;37.26;34.18;58.84;;
77134;Laerm;25175;50.140;18.990;2024-02-16T03:13:47;36.66;34.16;40.89;;
77134;Laerm;25175;50.140;18.990;2024-02-16T03:16:55;38.43;34.82;44.66;;
77134;Laerm;25175;50.140;18.990;2024-02-16T03:20:14;39.24;35.02;45.17;;
77134;Laerm;25175;50.140;18.990;2024-02-16T03:23:20;37.69;34.74;42.34;;
77134;Laerm;25175;50.140;18.990;2024-02-16T03:27:42;38.26;35.14;52.56;;
77134;Laerm;25175;50.140;18.990;2024-02-16T03:30:53;38.65;33.96;50.30;;
77134;Laerm;25175;50.140;18.990;2024-02-16T03:34:30;38.46;34.98;50.83;;
77134;Laerm;25175;50.140;18.990;2024-02-16T03:41:48;38.81;35.77;47.88;;
77134;Laerm;25175;50.140;18.990;2024-02-16T03:49:07;39.72;36.32;51.16;;
77134;Laerm;25175;50.140;18.990;2024-02-16T03:52:17;39.68;36.64;46.99;;
77134;Laerm;25175;50.140;18.990;2024-02-16T03:55:48;40.21;36.68;51.56;;
77134;Laerm;25175;50.140;18.990;2024-02-16T03:58:55;40.48;36.37;52.28;;
77134;Laerm;25175;50.140;18.990;2024-02-16T04:06:21;40.76;36.67;46.86;;
77134;Laerm;25175;50.140;18.990;2024-02-16T04:09:28;41.74;37.74;53.24;;
77134;Laerm;25175;50.140;18.990;2024-02-16T04:13:18;41.47;37.69;55.48;;
77134;Laerm;25175;50.140;18.990;2024-02-16T04:16:24;42.84;37.38;56.38;;
77134;Laerm;25175;50.140;18.990;2024-02-16T04:23:13;42.75;38.82;51.99;;
77134;Laerm;25175;50.140;18.990;2024-02-16T04:27:26;44.10;38.76;57.06;;
77134;Laerm;25175;50.140;18.990;2024-02-16T04:30:52;43.38;38.81;53.81;;
77134;Laerm;25175;50.140;18.990;2024-02-16T04:38:19;42.55;38.74;50.88;;
77134;Laerm;25175;50.140;18.990;2024-02-16T04:41:26;44.41;38.54;55.61;;
77134;Laerm;25175;50.140;18.990;2024-02-16T04:44:49;44.61;39.05;55.92;;
77134;Laerm;25175;50.140;18.990;2024-02-16T04:48:21;45.33;38.59;58.84;;
77134;Laerm;25175;50.140;18.990;2024-02-16T04:51:59;43.83;38.81;52.38;;
77134;Laerm;25175;50.140;18.990;2024-02-16T04:55:17;43.80;38.43;56.67;;
77134;Laerm;25175;50.140;18.990;2024-02-16T05:02:07;43.69;38.55;54.08;;
77134;Laerm;25175;50.140;18.990;2024-02-16T05:14:16;44.65;39.59;56.85;;
77134;Laerm;25175;50.140;18.990;2024-02-16T05:17:32;44.77;39.42;56.34;;
77134;Laerm;25175;50.140;18.990;2024-02-16T05:20:45;48.68;40.31;64.25;;
77134;Laerm;25175;50.140;18.990;2024-02-16T05:24:06;46.35;40.20;54.87;;
77134;Laerm;25175;50.140;18.990;2024-02-16T05:27:15;47.06;40.14;64.37;;
77134;Laerm;25175;50.140;18.990;2024-02-16T05:30:27;46.20;40.44;57.71;;
77134;Laerm;25175;50.140;18.990;2024-02-16T05:33:37;47.32;40.18;61.04;;
77134;Laerm;25175;50.140;18.990;2024-02-16T05:37:20;46.65;39.64;58.38;;
77134;Laerm;25175;50.140;18.990;2024-02-16T05:40:29;47.27;40.84;59.34;;
77134;Laerm;25175;50.140;18.990;2024-02-16T05:44:18;46.37;40.37;59.83;;
77134;Laerm;25175;50.140;18.990;2024-02-16T05:47:35;48.72;41.18;59.13;;
77134;Laerm;25175;50.140;18.990;2024-02-16T05:50:47;47.72;40.78;59.63;;
77134;Laerm;25175;50.140;18.990;2024-02-16T05:54:03;48.69;40.43;59.88;;
77134;Laerm;25175;50.140;18.990;2024-02-16T05:57:20;46.09;40.17;57.34;;
77134;Laerm;25175;50.140;18.990;2024-02-16T06:00:37;47.22;41.28;56.69;;
77134;Laerm;25175;50.140;18.990;2024-02-16T06:04:08;47.45;41.60;58.36;;
77134;Laerm;25175;50.140;18.990;2024-02-16T06:08:14;46.22;41.06;58.19;;
77134;Laerm;25175;50.140;18.990;2024-02-16T06:11:32;47.34;40.65;57.23;;
77134;Laerm;25175;50.140;18.990;2024-02-16T06:14:40;51.16;41.51;68.68;;
77134;Laerm;25175;50.140;18.990;2024-02-16T06:18:07;47.82;40.71;59.91;;
77134;Laerm;25175;50.140;18.990;2024-02-16T06:21:35;46.83;41.26;55.27;;
77134;Laerm;25175;50.140;18.990;2024-02-16T06:24:44;52.70;41.49;67.42;;
77134;Laerm;25175;50.140;18.990;2024-02-16T06:28:22;48.20;40.50;58.49;;
77134;Laerm;25175;50.140;18.990;2024-02-16T06:31:45;47.95;41.52;59.89;;
77134;Laerm;25175;50.140;18.990;2024-02-16T06:35:07;48.26;40.91;58.92;;
77134;Laerm;25175;50.140;18.990;2024-02-16T06:38:33;48.73;40.99;60.16;;
77134;Laerm;25175;50.140;18.990;2024-02-16T06:41:52;49.23;41.27;64.59;;
77134;Laerm;25175;50.140;18.990;2024-02-16T06:45:38;49.89;42.12;61.12;;
77134;Laerm;25175;50.140;18.990;2024-02-16T06:52:22;49.65;41.09;63.18;;
77134;Laerm;25175;50.140;18.990;2024-02-16T06:55:44;48.74;41.54;61.37;;
77134;Laerm;25175;50.140;18.990;2024-02-16T06:59:05;49.19;40.82;60.56;;
77134;Laerm;25175;50.140;18.990;2024-02-16T07:02:35;48.07;40.81;61.05;;
77134;Laerm;25175;50.140;18.990;2024-02-16T07:10:07;47.36;41.09;59.92;;
77134;Laerm;25175;50.140;18.990;2024-02-16T07:13:21;47.59;39.65;63.20;;
77134;Laerm;25175;50.140;18.990;2024-02-16T07:17:12;46.36;40.17;56.82;;
77134;Laerm;25175;50.140;18.990;2024-02-16T07:20:37;46.99;40.67;61.88;;
77134;Laerm;25175;50.140;18.990;2024-02-16T07:24:00;48.04;39.73;69.85;;
77134;Laerm;25175;50.140;18.990;2024-02-16T07:27:28;47.40;39.77;58.26;;
77134;Laerm;25175;50.140;18.990;2024-02-16T07:35:27;46.43;39.47;62.25;;
77134;Laerm;25175;50.140;18.990;2024-02-16T07:38:36;56.76;39.67;78.56;;
77134;Laerm;25175;50.140;18.990;2024-02-16T07:42:05;53.09;40.34;73.12;;
77134;Laerm;25175;50.140;18.990;2024-02-16T07:45:25;47.94;39.50;62.01;;
77134;Laerm;25175;50.140;18.990;2024-02-16T07:48:42;47.27;40.02;58.27;;
77134;Laerm;25175;50.140;18.990;2024-02-16T07:52:07;46.02;39.92;57.38;;
77134;Laerm;25175;50.140;18.990;2024-02-16T07:55:40;46.85;39.81;60.61;;
77134;Laerm;25175;50.140;18.990;2024-02-16T07:59:20;49.95;39.36;71.11;;
77134;Laerm;25175;50.140;18.990;2024-02-16T08:02:38;48.02;39.26;59.11;;
77134;Laerm;25175;50.140;18.990;2024-02-16T08:10:03;48.51;39.45;63.23;;
77134;Laerm;25175;50.140;18.990;2024-02-16T08:13:09;44.90;38.93;60.04;;
77134;Laerm;25175;50.140;18.990;2024-02-16T08:16:31;49.84;39.52;61.49;;
77134;Laerm;25175;50.140;18.990;2024-02-16T08:19:41;45.09;38.70;57.22;;
77134;Laerm;25175;50.140;18.990;2024-02-16T08:23:39;47.49;38.32;62.77;;
77134;Laerm;25175;50.140;18.990;2024-02-16T08:27:16;46.24;38.54;59.33;;
77134;Laerm;25175;50.140;18.990;2024-02-16T08:30:55;45.36;38.29;62.69;;
77134;Laerm;25175;50.140;18.990;2024-02-16T08:38:40;47.20;39.13;62.41;;
77134;Laerm;25175;50.140;18.990;2024-02-16T08:42:24;55.61;39.16;74.71;;
77134;Laerm;25175;50.140;18.990;2024-02-16T08:45:49;47.46;38.58;61.70;;
77134;Laerm;25175;50.140;18.990;2024-02-16T08:48:55;46.65;37.95;63.02;;
77134;Laerm;25175;50.140;18.990;2024-02-16T08:52:49;45.53;38.01;60.75;;
77134;Laerm;25175;50.140;18.990;2024-02-16T08:56:09;46.45;38.27;58.28;;
77134;Laerm;25175;50.140;18.990;2024-02-16T09:03:35;45.21;37.30;61.72;;
77134;Laerm;25175;50.140;18.990;2024-02-16T09:10:57;51.73;38.61;69.59;;
77134;Laerm;25175;50.140;18.990;2024-02-16T09:14:50;45.42;36.79;64.06;;
77134;Laerm;25175;50.140;18.990;2024-02-16T09:19:01;45.55;37.71;59.01;;
77134;Laerm;25175;50.140;18.990;2024-02-16T09:22:01;46.96;37.10;67.16;;
77134;Laerm;25175;50.140;18.990;2024-02-16T09:25:17;43.62;36.97;58.29;;
77134;Laerm;25175;50.140;18.990;2024-02-16T09:28:41;45.08;37.31;62.15;;
77134;Laerm;25175;50.140;18.990;2024-02-16T09:32:00;44.67;37.09;57.67;;
77134;Laerm;25175;50.140;18.990;2024-02-16T09:39:09;48.63;36.29;62.06;;
77134;Laerm;25175;50.140;18.990;2024-02-16T09:42:24;43.40;36.33;58.09;;
77134;Laerm;25175;50.140;18.990;2024-02-16T09:45:47;45.81;36.25;59.11;;
77134;Laerm;25175;50.140;18.990;2024-02-16T09:49:03;47.30;35.51;67.97;;
77134;Laerm;25175;50.140;18.990;2024-02-16T09:55:59;53.38;36.23;76.23;;
77134;Laerm;25175;50.140;18.990;2024-02-16T10:02:54;44.92;35.17;63.26;;
77134;Laerm;25175;50.140;18.990;2024-02-16T10:07:00;44.34;35.27;59.40;;
77134;Laerm;25175;50.140;18.990;2024-02-16T10:10:23;39.26;34.33;56.66;;
77134;Laerm;25175;50.140;18.990;2024-02-16T10:13:32;43.31;34.53;57.68;;
77134;Laerm;25175;50.140;18.990;2024-02-16T10:17:16;44.10;34.35;56.08;;
77134;Laerm;25175;50.140;18.990;2024-02-16T10:20:29;46.19;34.59;61.03;;
77134;Laerm;25175;50.140;18.990;2024-02-16T10:23:59;50.36;34.67;66.51;;
77134;Laerm;25175;50.140;18.990;2024-02-16T10:27:24;44.66;34.96;57.55;;
77134;Laerm;25175;50.140;18.990;2024-02-16T10:35:09;45.10;34.82;60.96;;
77134;Laerm;25175;50.140;18.990;2024-02-16T10:38:29;46.00;34.52;59.06;;
77134;Laerm;25175;50.140;18.990;2024-02-16T10:42:03;47.09;36.41;59.95;;
77134;Laerm;25175;50.140;18.990;2024-02-16T10:45:36;48.40;35.40;65.76;;
77134;Laerm;25175;50.140;18.990;2024-02-16T10:48:42;48.96;34.95;71.48;;
77134;Laerm;25175;50.140;18.990;2024-02-16T10:56:32;51.91;33.77;73.09;;
77134;Laerm;25175;50.140;18.990;2024-02-16T10:59:52;53.13;34.43;73.66;;
77134;Laerm;25175;50.140;18.990;2024-02-16T11:11:52;46.86;34.47;63.77;;
77134;Laerm;25175;50.140;18.990;2024-02-16T11:15:30;47.28;34.66;62.00;;
77134;Laerm;25175;50.140;18.990;2024-02-16T11:18:45;43.79;34.10;58.19;;
77134;Laerm;25175;50.140;18.990;2024-02-16T11:26:01;46.78;34.35;67.93;;
77134;Laerm;25175;50.140;18.990;2024-02-16T11:29:16;52.18;35.64;68.72;;
77134;Laerm;25175;50.140;18.990;2024-02-16T11:33:42;44.35;34.97;56.29;;
77134;Laerm;25175;50.140;18.990;2024-02-16T11:37:05;45.34;36.59;57.36;;
77134;Laerm;25175;50.140;18.990;2024-02-16T11:49:09;46.83;36.80;59.71;;
77134;Laerm;25175;50.140;18.990;2024-02-16T11:52:35;45.20;36.36;56.72;;
77134;Laerm;25175;50.140;18.990;2024-02-16T11:56:22;46.11;36.14;60.06;;
77134;Laerm;25175;50.140;18.990;2024-02-16T11:59:47;44.77;35.43;57.10;;
77134;Laerm;25175;50.140;18.990;2024-02-16T12:03:07;44.87;35.87;58.72;;
77134;Laerm;25175;50.140;18.990;2024-02-16T12:06:25;45.78;37.09;57.72;;
77134;Laerm;25175;50.140;18.990;2024-02-16T12:09:34;45.76;35.94;59.81;;
77134;Laerm;25175;50.140;18.990;2024-02-16T12:12:54;45.39;35.83;57.99;;
77134;Laerm;25175;50.140;18.990;2024-02-16T12:20:14;48.79;35.79;64.78;;
77134;Laerm;25175;50.140;18.990;2024-02-16T12:23:41;43.09;36.11;59.02;;
77134;Laerm;25175;50.140;18.990;2024-02-16T12:27:11;46.64;36.51;63.46;;
77134;Laerm;25175;50.140;18.990;2024-02-16T12:31:44;44.89;36.00;58.42;;
77134;Laerm;25175;50.140;18.990;2024-02-16T12:34:35;46.11;35.70;59.82;;
77134;Laerm;25175;50.140;18.990;2024-02-16T12:38:02;44.98;35.23;58.79;;
77134;Laerm;25175;50.140;18.990;2024-02-16T12:41:20;46.31;36.67;65.33;;
77134;Laerm;25175;50.140;18.990;2024-02-16T12:44:56;51.66;36.11;70.99;;
77134;Laerm;25175;50.140;18.990;2024-02-16T12:55:22;49.68;36.20;68.18;;
77134;Laerm;25175;50.140;18.990;2024-02-16T13:07:52;49.31;36.79;68.85;;
77134;Laerm;25175;50.140;18.990;2024-02-16T13:11:06;47.26;35.02;60.85;;
77134;Laerm;25175;50.140;18.990;2024-02-16T13:14:27;45.12;36.26;60.53;;
77134;Laerm;25175;50.140;18.990;2024-02-16T13:21:47;45.19;36.92;57.93;;
77134;Laerm;25175;50.140;18.990;2024-02-16T13:24:59;44.79;35.41;57.48;;
77134;Laerm;25175;50.140;18.990;2024-02-16T13:28:07;49.33;35.79;64.63;;
77134;Laerm;25175;50.140;18.990;2024-02-16T13:44:20;46.85;35.75;66.28;;
77134;Laerm;25175;50.140;18.990;2024-02-16T13:48:12;47.10;35.32;60.11;;
77134;Laerm;25175;50.140;18.990;2024-02-16T13:51:30;45.88;35.79;57.91;;
77134;Laerm;25175;50.140;18.990;2024-02-16T13:54:41;46.69;37.37;67.71;;
77134;Laerm;25175;50.140;18.990;2024-02-16T13:57:51;46.13;37.65;55.10;;
77134;Laerm;25175;50.140;18.990;2024-02-16T14:01:57;46.90;37.48;61.25;;
77134;Laerm;25175;50.140;18.990;2024-02-16T14:05:33;49.54;37.01;69.68;;
77134;Laerm;25175;50.140;18.990;2024-02-16T14:12:46;50.25;36.20;71.13;;
77134;Laerm;25175;50.140;18.990;2024-02-16T14:16:55;56.74;36.61;78.04;;
77134;Laerm;25175;50.140;18.990;2024-02-16T14:20:07;46.77;35.85;62.52;;
77134;Laerm;25175;50.140;18.990;2024-02-16T14:23:15;48.55;36.55;61.82;;
77134;Laerm;25175;50.140;18.990;2024-02-16T14:27:08;48.80;35.79;75.13;;
77134;Laerm;25175;50.140;18.990;2024-02-16T14:39:09;45.24;36.11;58.71;;
77134;Laerm;25175;50.140;18.990;2024-02-16T14:46:34;46.49;36.39;59.95;;
77134;Laerm;25175;50.140;18.990;2024-02-16T14:49:44;46.13;36.67;58.10;;
77134;Laerm;25175;50.140;18.990;2024-02-16T14:53:20;51.10;36.83;74.39;;
77134;Laerm;25175;50.140;18.990;2024-02-16T14:56:34;46.13;36.79;59.75;;
77134;Laerm;25175;50.140;18.990;2024-02-16T15:00:10;47.42;37.52;59.24;;
77134;Laerm;25175;50.140;18.990;2024-02-16T15:03:30;48.92;38.25;65.36;;
77134;Laerm;25175;50.140;18.990;2024-02-16T15:06:38;45.30;36.25;56.45;;
77134;Laerm;25175;50.140;18.990;2024-02-16T15:09:46;46.40;36.50;62.46;;
77134;Laerm;25175;50.140;18.990;2024-02-16T15:13:20;46.04;37.15;58.32;;
77134;Laerm;25175;50.140;18.990;2024-02-16T15:24:18;48.86;37.99;62.04;;
77134;Laerm;25175;50.140;18.990;2024-02-16T15:31:22;46.55;36.27;59.67;;
77134;Laerm;25175;50.140;18.990;2024-02-16T15:34:45;47.42;37.42;57.99;;
77134;Laerm;25175;50.140;18.990;2024-02-16T15:38:50;45.47;37.50;61.09;;
77134;Laerm;25175;50.140;18.990;2024-02-16T15:41:56;51.36;38.06;73.08;;
77134;Laerm;25175;50.140;18.990;2024-02-16T15:45:09;47.31;37.64;61.84;;
77134;Laerm;25175;50.140;18.990;2024-02-16T15:48:55;46.14;37.75;61.38;;
77134;Laerm;25175;50.140;18.990;2024-02-16T15:52:02;46.68;38.20;56.85;;
77134;Laerm;25175;50.140;18.990;2024-02-16T15:55:11;46.99;38.03;58.36;;
77134;Laerm;25175;50.140;18.990;2024-02-16T15:58:28;54.64;38.07;78.62;;
77134;Laerm;25175;50.140;18.990;2024-02-16T16:01:56;49.42;38.10;70.31;;
77134;Laerm;25175;50.140;18.990;2024-02-16T16:05:30;46.83;38.56;58.38;;
77134;Laerm;25175;50.140;18.990;2024-02-16T16:12:32;46.71;38.20;55.73;;
77134;Laerm;25175;50.140;18.990;2024-02-16T16:15:42;46.40;37.85;59.28;;
77134;Laerm;25175;50.140;18.990;2024-02-16T16:23:26;45.76;37.76;60.46;;
77134;Laerm;25175;50.140;18.990;2024-02-16T16:26:42;48.19;38.43;62.26;;
77134;Laerm;25175;50.140;18.990;2024-02-16T16:34:19;49.05;38.94;64.08;;
77134;Laerm;25175;50.140;18.990;2024-02-16T16:37:39;45.70;38.58;58.36;;
77134;Laerm;25175;50.140;18.990;2024-02-16T16:40:48;46.16;38.51;58.00;;
77134;Laerm;25175;50.140;18.990;2024-02-16T16:44:00;48.34;38.47;65.63;;
77134;Laerm;25175;50.140;18.990;2024-02-16T16:47:17;47.84;38.62;60.05;;
77134;Laerm;25175;50.140;18.990;2024-02-16T16:50:24;47.41;38.10;65.79;;
77134;Laerm;25175;50.140;18.990;2024-02-16T17:01:01;46.63;38.79;58.86;;
77134;Laerm;25175;50.140;18.990;2024-02-16T17:04:07;45.62;38.81;60.44;;
77134;Laerm;25175;50.140;18.990;2024-02-16T17:07:17;45.14;38.39;56.80;;
77134;Laerm;25175;50.140;18.990;2024-02-16T17:10:39;44.87;37.76;58.29;;
77134;Laerm;25175;50.140;18.990;2024-02-16T17:13:50;46.21;38.43;59.52;;
77134;Laerm;25175;50.140;18.990;2024-02-16T17:17:10;46.79;37.96;57.02;;
77134;Laerm;25175;50.140;18.990;2024-02-16T17:20:20;43.04;38.07;51.45;;
77134;Laerm;25175;50.140;18.990;2024-02-16T17:23:39;45.01;38.45;54.30;;
77134;Laerm;25175;50.140;18.990;2024-02-16T17:27:05;55.33;37.56;74.51;;
77134;Laerm;25175;50.140;18.990;2024-02-16T17:30:18;50.26;38.18;68.52;;
77134;Laerm;25175;50.140;18.990;2024-02-16T17:33:38;45.04;37.66;58.74;;
77134;Laerm;25175;50.140;18.990;2024-02-16T17:37:11;59.91;39.07;83.15;;
77134;Laerm;25175;50.140;18.990;2024-02-16T17:40:23;45.80;38.70;57.81;;
77134;Laerm;25175;50.140;18.990;2024-02-16T17:47:23;45.95;38.30;59.24;;
77134;Laerm;25175;50.140;18.990;2024-02-16T17:50:51;53.18;38.92;71.30;;
77134;Laerm;25175;50.140;18.990;2024-02-16T17:57:39;45.40;38.38;57.67;;
77134;Laerm;25175;50.140;18.990;2024-02-16T18:00:49;49.68;38.55;62.56;;
77134;Laerm;25175;50.140;18.990;2024-02-16T18:04:16;45.28;38.50;65.37;;
77134;Laerm;25175;50.140;18.990;2024-02-16T18:07:45;44.82;38.31;59.31;;
77134;Laerm;25175;50.140;18.990;2024-02-16T18:10:56;48.24;38.43;66.78;;
77134;Laerm;25175;50.140;18.990;2024-02-16T18:17:56;45.65;38.51;59.99;;
77134;Laerm;25175;50.140;18.990;2024-02-16T18:21:07;44.98;38.32;55.15;;
77134;Laerm;25175;50.140;18.990;2024-02-16T18:28:24;44.22;37.90;55.24;;
77134;Laerm;25175;50.140;18.990;2024-02-16T18:31:38;42.75;37.90;56.51;;
77134;Laerm;25175;50.140;18.990;2024-02-16T18:34:43;44.48;38.25;60.81;;
77134;Laerm;25175;50.140;18.990;2024-02-16T18:37:53;48.60;38.55;65.77;;
77134;Laerm;25175;50.140;18.990;2024-02-16T18:41:29;48.45;39.81;64.68;;
77134;Laerm;25175;50.140;18.990;2024-02-16T18:44:40;44.25;38.29;60.65;;
77134;Laerm;25175;50.140;18.990;2024-02-16T18:48:55;45.97;38.43;58.13;;
77134;Laerm;25175;50.140;18.990;2024-02-16T18:52:23;45.15;38.34;59.74;;
77134;Laerm;25175;50.140;18.990;2024-02-16T18:56:09;44.71;38.96;64.90;;
77134;Laerm;25175;50.140;18.990;2024-02-16T18:59:18;44.73;38.85;53.69;;
77134;Laerm;25175;50.140;18.990;2024-02-16T19:02:47;44.80;38.47;63.77;;
77134;Laerm;25175;50.140;18.990;2024-02-16T19:05:57;45.14;38.75;63.48;;
77134;Laerm;25175;50.140;18.990;2024-02-16T19:09:19;43.88;38.37;56.22;;
77134;Laerm;25175;50.140;18.990;2024-02-16T19:12:43;44.83;38.34;58.24;;
77134;Laerm;25175;50.140;18.990;2024-02-16T19:15:54;47.54;38.71;66.81;;
77134;Laerm;25175;50.140;18.990;2024-02-16T19:23:16;46.75;38.85;62.89;;
77134;Laerm;25175;50.140;18.990;2024-02-16T19:26:24;43.44;39.18;52.47;;
77134;Laerm;25175;50.140;18.990;2024-02-16T19:29:40;45.44;38.56;66.04;;
77134;Laerm;25175;50.140;18.990;2024-02-16T19:33:10;55.86;39.65;75.34;;
77134;Laerm;25175;50.140;18.990;2024-02-16T19:36:16;55.48;38.06;77.73;;
77134;Laerm;25175;50.140;18.990;2024-02-16T19:39:32;45.85;38.07;57.63;;
77134;Laerm;25175;50.140;18.990;2024-02-16T19:42:42;45.05;38.17;55.29;;
77134;Laerm;25175;50.140;18.990;2024-02-16T19:46:11;45.43;38.85;56.81;;
77134;Laerm;25175;50.140;18.990;2024-02-16T19:49:44;44.64;38.07;57.70;;
77134;Laerm;25175;50.140;18.990;2024-02-16T19:56:57;44.09;38.68;54.08;;
77134;Laerm;25175;50.140;18.990;2024-02-16T20:00:08;45.16;37.63;57.76;;
77134;Laerm;25175;50.140;18.990;2024-02-16T20:04:00;44.73;37.74;58.54;;
77134;Laerm;25175;50.140;18.990;2024-02-16T20:08:05;45.41;37.24;62.52;;
77134;Laerm;25175;50.140;18.990;2024-02-16T20:11:11;42.23;37.76;52.84;;
77134;Laerm;25175;50.140;18.990;2024-02-16T20:14:19;44.26;38.10;57.15;;
77134;Laerm;25175;50.140;18.990;2024-02-16T20:17:25;49.65;37.99;61.15;;
77134;Laerm;25175;50.140;18.990;2024-02-16T20:20:34;43.28;37.97;58.45;;
77134;Laerm;25175;50.140;18.990;2024-02-16T20:24:50;42.64;37.15;52.25;;
77134;Laerm;25175;50.140;18.990;2024-02-16T20:27:38;43.86;37.13;55.35;;
77134;Laerm;25175;50.140;18.990;2024-02-16T20:30:48;43.72;37.08;59.55;;
77134;Laerm;25175;50.140;18.990;2024-02-16T20:33:56;42.40;36.56;56.50;;
77134;Laerm;25175;50.140;18.990;2024-02-16T20:37:11;44.19;36.88;59.70;;
77134;Laerm;25175;50.140;18.990;2024-02-16T20:40:34;41.82;37.03;55.01;;
77134;Laerm;25175;50.140;18.990;2024-02-16T20:44:11;41.90;36.95;54.93;;
77134;Laerm;25175;50.140;18.990;2024-02-16T20:47:23;41.56;36.74;57.57;;
77134;Laerm;25175;50.140;18.990;2024-02-16T20:50:30;42.76;36.34;60.40;;
77134;Laerm;25175;50.140;18.990;2024-02-16T20:53:39;40.05;36.15;50.65;;
77134;Laerm;25175;50.140;18.990;2024-02-16T20:56:58;45.33;36.37;61.40;;
77134;Laerm;25175;50.140;18.990;2024-02-16T21:01:12;43.09;35.82;60.27;;
77134;Laerm;25175;50.140;18.990;2024-02-16T21:04:32;43.20;36.15;57.92;;
77134;Laerm;25175;50.140;18.990;2024-02-16T21:07:44;42.97;36.93;55.57;;
77134;Laerm;25175;50.140;18.990;2024-02-16T21:11:23;42.23;36.70;54.10;;
77134;Laerm;25175;50.140;18.990;2024-02-16T21:14:42;44.15;37.01;56.67;;
77134;Laerm;25175;50.140;18.990;2024-02-16T21:18:15;42.48;36.80;55.91;;
77134;Laerm;25175;50.140;18.990;2024-02-16T21:25:33;43.07;36.71;55.75;;
77134;Laerm;25175;50.140;18.990;2024-02-16T21:28:45;41.46;36.35;53.66;;
77134;Laerm;25175;50.140;18.990;2024-02-16T21:33:05;42.19;36.53;55.59;;
77134;Laerm;25175;50.140;18.990;2024-02-16T21:37:08;40.23;36.29;56.13;;
77134;Laerm;25175;50.140;18.990;2024-02-16T21:44:29;42.22;36.32;56.82;;
77134;Laerm;25175;50.140;18.990;2024-02-16T21:47:45;41.77;36.38;54.11;;
77134;Laerm;25175;50.140;18.990;2024-02-16T21:51:12;42.94;36.46;55.48;;
77134;Laerm;25175;50.140;18.990;2024-02-16T21:55:09;43.40;36.58;59.56;;
77134;Laerm;25175;50.140;18.990;2024-02-16T21:58:49;42.18;36.74;54.55;;
77134;Laerm;25175;50.140;18.990;2024-02-16T22:06:20;42.07;35.61;60.86;;
77134;Laerm;25175;50.140;18.990;2024-02-16T22:09:31;43.75;36.03;60.50;;
77134;Laerm;25175;50.140;18.990;2024-02-16T22:12:49;40.75;35.74;55.56;;
77134;Laerm;25175;50.140;18.990;2024-02-16T22:16:35;39.41;36.02;50.55;;
77134;Laerm;25175;50.140;18.990;2024-02-16T22:23:45;41.65;36.20;54.14;;
77134;Laerm;25175;50.140;18.990;2024-02-16T22:26:51;39.82;35.85;56.79;;
77134;Laerm;25175;50.140;18.990;2024-02-16T22:29:59;41.29;36.13;54.43;;
77134;Laerm;25175;50.140;18.990;2024-02-16T22:33:19;41.01;35.96;55.74;;
77134;Laerm;25175;50.140;18.990;2024-02-16T22:36:40;41.29;36.31;51.80;;
77134;Laerm;25175;50.140;18.990;2024-02-16T22:40:00;39.43;35.42;52.10;;
77134;Laerm;25175;50.140;18.990;2024-02-16T22:43:17;41.74;35.31;53.50;;
77134;Laerm;25175;50.140;18.990;2024-02-16T22:46:24;39.66;35.58;47.31;;
77134;Laerm;25175;50.140;18.990;2024-02-16T22:49:52;39.77;35.81;54.06;;
77134;Laerm;25175;50.140;18.990;2024-02-16T22:53:11;38.39;35.50;43.39;;
77134;Laerm;25175;50.140;18.990;2024-02-16T22:57:09;39.41;35.41;56.21;;
77134;Laerm;25175;50.140;18.990;2024-02-16T23:04:52;40.88;35.77;57.40;;
77134;Laerm;25175;50.140;18.990;2024-02-16T23:08:12;42.99;35.65;60.03;;
77134;Laerm;25175;50.140;18.990;2024-02-16T23:15:12;40.17;35.44;59.29;;